Time;durP1;ratioP1;P1;durP2;ratioP2;P2;SDS_P1;SDS_P2;PMS_P1;PMS_P2;Temp;Humidity;BMP_temperature;BMP_pressure;BME280_temperature;BME280_humidity;BME280_pressure;Samples;Min_cycle;Max_cycle;Signal;HPM_P1;HPM_P2
2021/11/28 00:01:07;;;;;;;;;2.25;2.00;;;;;5.75;73.01;98923.31;5060924;28;46368;-61
2021/11/28 00:03:33;;;;;;;;;2.00;2.00;;;;;5.75;72.91;98923.31;5060994;28;45378;-61
2021/11/28 00:06:01;;;;;;;;;4.00;3.00;;;;;5.76;72.72;98929.31;5079187;28;45351;-61
2021/11/28 00:14:07;;;;;;;;;3.25;2.00;;;;;5.78;72.82;98927.38;5073768;28;45972;-61
2021/11/28 00:16:33;;;;;;;;;3.00;2.25;;;;;5.81;72.79;98923.69;5077874;28;45380;-61
2021/11/28 00:18:58;;;;;;;;;3.00;1.50;;;;;5.85;72.78;98931.06;5078704;28;45403;-61
2021/11/28 00:21:23;;;;;;;;;5.00;1.25;;;;;5.85;72.38;98923.25;5077920;28;67533;-61
2021/11/28 00:23:49;;;;;;;;;1.25;1.25;;;;;5.88;72.27;98929.94;5077880;28;63906;-61
2021/11/28 00:26:14;;;;;;;;;2.50;2.00;;;;;5.87;72.07;98928.31;5078178;28;61629;-61
2021/11/28 00:28:40;;;;;;;;;6.00;2.25;;;;;5.86;71.96;98921.44;5078766;28;45467;-61
2021/11/28 00:31:05;;;;;;;;;4.00;2.00;;;;;5.87;71.79;98929.13;5077833;28;69958;-61
2021/11/28 00:33:31;;;;;;;;;2.00;1.75;;;;;5.85;71.84;98923.25;5078635;28;45328;-61
2021/11/28 00:35:56;;;;;;;;;2.00;2.00;;;;;5.85;71.82;98925.84;5078893;28;45405;-61
2021/11/28 00:38:22;;;;;;;;;4.25;2.25;;;;;5.86;71.94;98926.66;5081587;27;45371;-61
2021/11/28 00:40:47;;;;;;;;;2.00;1.00;;;;;5.88;71.75;98925.56;5098518;27;46298;-62
2021/11/28 00:43:12;;;;;;;;;3.75;2.00;;;;;5.90;71.61;98931.44;5097996;27;69588;-61
2021/11/28 00:45:38;;;;;;;;;1.00;1.00;;;;;5.90;71.87;98933.22;5098007;27;45606;-61
2021/11/28 00:48:03;;;;;;;;;1.00;1.00;;;;;5.92;71.53;98934.72;5098589;27;47917;-61
2021/11/28 00:50:47;;;;;;;;;1.50;1.50;;;;;5.92;71.61;98929.53;5098762;27;45311;-61
2021/11/28 00:53:15;;;;;;;;;2.00;1.00;;;;;5.94;71.53;98937.19;5098032;27;45219;-61
2021/11/28 00:55:40;;;;;;;;;2.00;2.00;;;;;5.94;71.35;98938.03;5098882;27;45240;-61
2021/11/28 00:58:06;;;;;;;;;3.75;2.00;;;;;5.96;71.30;98937.84;5098671;27;45216;-61
2021/11/28 01:00:31;;;;;;;;;1.25;1.25;;;;;5.97;71.30;98944.72;5098646;27;45407;-61
2021/11/28 01:02:56;;;;;;;;;3.00;1.50;;;;;5.99;71.21;98955.00;5097713;27;66466;-61
2021/11/28 01:05:22;;;;;;;;;3.25;1.00;;;;;6.00;70.62;98951.44;5098334;27;45773;-62
2021/11/28 01:07:47;;;;;;;;;4.25;2.00;;;;;6.01;71.14;98950.50;5098591;27;45292;-61
2021/11/28 01:10:13;;;;;;;;;1.50;1.50;;;;;6.02;70.84;98958.16;5079854;27;47103;-61
2021/11/28 01:12:39;;;;;;;;;3.00;2.00;;;;;6.02;70.84;98955.56;5098192;27;45378;-61
2021/11/28 01:15:05;;;;;;;;;5.25;2.00;;;;;6.02;70.89;98958.16;5098408;27;45433;-61
2021/11/28 01:17:32;;;;;;;;;1.50;1.50;;;;;6.04;70.84;98958.84;5098314;27;45560;-61
2021/11/28 01:19:57;;;;;;;;;1.50;1.00;;;;;6.06;70.73;98956.09;5079866;27;47038;-61
2021/11/28 01:22:23;;;;;;;;;3.00;2.00;;;;;6.04;70.43;98956.22;5098270;27;45312;-61
2021/11/28 01:24:48;;;;;;;;;3.00;2.00;;;;;6.05;70.44;98964.91;5080029;27;45409;-61
2021/11/28 01:27:14;;;;;;;;;1.50;1.00;;;;;6.05;70.68;98957.88;5098237;27;45602;-61
2021/11/28 01:29:41;;;;;;;;;2.00;1.00;;;;;6.06;70.64;98967.34;5096754;27;49987;-61
2021/11/28 01:32:06;;;;;;;;;3.25;1.00;;;;;6.08;70.53;98969.81;5080073;27;45430;-61
2021/11/28 01:34:32;;;;;;;;;4.50;1.75;;;;;6.07;70.72;98984.63;5096777;27;45282;-61
2021/11/28 01:36:57;;;;;;;;;1.00;1.00;;;;;6.09;70.57;98980.09;5097719;27;48116;-61
2021/11/28 01:39:23;;;;;;;;;2.75;1.25;;;;;6.09;70.29;98976.69;5096540;27;45353;-61
2021/11/28 01:41:48;;;;;;;;;5.00;2.00;;;;;6.07;70.24;98984.63;5096740;27;70404;-61
2021/11/28 01:44:13;;;;;;;;;1.00;1.00;;;;;6.08;70.32;98988.88;5098042;27;45854;-61
2021/11/28 01:46:39;;;;;;;;;3.00;2.25;;;;;6.10;69.99;98983.50;5079275;27;47637;-61
2021/11/28 01:49:06;;;;;;;;;1.00;1.00;;;;;6.09;69.95;98980.09;5096839;27;71673;-61
2021/11/28 01:51:31;;;;;;;;;1.75;1.75;;;;;6.07;69.72;98994.25;5096670;27;45814;-61
2021/11/28 01:53:57;;;;;;;;;2.00;2.00;;;;;6.08;69.98;98991.50;5097838;27;45318;-61
2021/11/28 01:56:23;;;;;;;;;2.00;1.00;;;;;6.07;69.64;98992.44;5096788;27;66444;-61
2021/11/28 01:58:48;;;;;;;;;2.00;2.00;;;;;6.08;69.75;99001.09;5097096;27;46801;-61
2021/11/28 02:01:15;;;;;;;;;4.00;1.00;;;;;6.07;69.49;99007.28;5097499;27;45413;-61
2021/11/28 02:03:41;;;;;;;;;1.75;1.00;;;;;6.05;69.47;99010.03;5097798;27;45383;-61
2021/11/28 02:06:09;;;;;;;;;1.75;0.75;;;;;6.05;69.31;99002.19;5079531;27;45516;-61
2021/11/28 02:08:34;;;;;;;;;1.00;1.00;;;;;6.06;69.58;98998.63;5079192;27;46187;-61
2021/11/28 02:11:00;;;;;;;;;3.00;1.00;;;;;6.06;69.14;99013.47;5097409;27;46569;-61
2021/11/28 02:13:25;;;;;;;;;3.00;1.00;;;;;6.04;69.12;99005.78;5097551;27;45795;-61
2021/11/28 02:15:51;;;;;;;;;2.00;2.00;;;;;6.05;69.31;99007.41;5097580;27;45282;-61
2021/11/28 02:18:16;;;;;;;;;1.00;1.00;;;;;6.06;68.96;99005.66;5097321;27;46614;-61
2021/11/28 02:20:46;;;;;;;;;1.50;1.00;;;;;6.07;68.80;99004.69;5096316;27;70567;-61
2021/11/28 02:23:11;;;;;;;;;3.50;1.00;;;;;6.07;68.94;99012.50;5097467;27;45297;-61
2021/11/28 02:25:36;;;;;;;;;2.00;0.25;;;;;6.04;68.53;99008.38;5097457;27;45465;-61
2021/11/28 02:28:02;;;;;;;;;1.00;1.00;;;;;6.05;68.50;99017.03;5096271;27;69367;-61
2021/11/28 02:30:27;;;;;;;;;3.75;1.50;;;;;6.03;68.72;99019.78;5096666;27;60585;-61
2021/11/28 02:32:53;;;;;;;;;0.50;0.50;;;;;6.04;68.92;99010.19;5097333;27;45506;-61
2021/11/28 02:35:18;;;;;;;;;1.00;1.00;;;;;6.05;68.74;99015.25;5097411;27;45599;-61
2021/11/28 02:37:44;;;;;;;;;1.00;1.00;;;;;6.05;68.79;99014.44;5078560;27;45514;-61
2021/11/28 02:40:13;;;;;;;;;3.50;0.00;;;;;6.03;68.54;99014.56;5096846;27;45532;-61
2021/11/28 02:42:39;;;;;;;;;2.00;1.00;;;;;6.05;68.50;99025.66;5078911;27;45389;-61
2021/11/28 02:45:06;;;;;;;;;3.00;2.00;;;;;6.05;68.71;99028.28;5096278;27;45442;-61
2021/11/28 02:47:31;;;;;;;;;2.25;1.00;;;;;6.07;68.60;99023.75;5096829;27;45514;-62
2021/11/28 02:49:56;;;;;;;;;2.25;1.25;;;;;6.08;68.57;99027.19;5095761;27;72610;-60
2021/11/28 02:52:22;;;;;;;;;2.50;1.00;;;;;6.07;68.50;99028.16;5096162;27;63435;-61
2021/11/28 02:54:47;;;;;;;;;1.75;1.00;;;;;6.07;68.35;99034.16;5096982;27;45330;-61
2021/11/28 02:57:12;;;;;;;;;2.00;1.00;;;;;6.08;68.54;99040.22;5096255;27;61386;-61
2021/11/28 02:59:38;;;;;;;;;4.00;2.00;;;;;6.06;68.26;99029.91;5078492;27;45406;-61
2021/11/28 03:02:04;;;;;;;;;2.00;0.50;;;;;6.07;68.43;99036.78;5096653;27;51401;-61
2021/11/28 03:04:29;;;;;;;;;2.00;1.75;;;;;6.07;68.57;99036.78;5096849;27;45317;-61
2021/11/28 03:06:54;;;;;;;;;2.00;0.25;;;;;6.08;68.54;99033.22;5096727;27;45563;-61
2021/11/28 03:09:20;;;;;;;;;1.75;1.00;;;;;6.06;68.30;99035.13;5096482;27;70872;-61
2021/11/28 03:11:45;;;;;;;;;0.75;0.75;;;;;6.08;68.45;99033.22;5099583;27;62425;-61
2021/11/28 03:14:10;;;;;;;;;1.00;1.00;;;;;6.09;68.63;99036.66;5099718;27;64005;-61
2021/11/28 03:16:36;;;;;;;;;0.75;0.75;;;;;6.10;68.45;99040.88;5098112;27;69086;-61
2021/11/28 03:19:01;;;;;;;;;3.75;1.50;;;;;6.10;68.59;99035.66;5099536;27;61536;-61
2021/11/28 03:21:30;;;;;;;;;1.00;1.00;;;;;6.11;68.41;99033.88;5081367;27;59375;-61
2021/11/28 03:23:57;;;;;;;;;2.00;1.00;;;;;6.09;68.64;99034.84;5100380;27;45558;-61
2021/11/28 03:26:28;;;;;;;;;1.50;1.50;;;;;6.09;68.41;99039.25;5099943;27;46098;-61
2021/11/28 03:28:59;;;;;;;;;0.25;0.25;;;;;6.08;68.54;99043.63;5100225;27;45718;-61
2021/11/28 03:31:26;;;;;;;;;0.25;0.25;;;;;6.09;68.71;99045.28;5100134;27;45306;-61
2021/11/28 03:33:51;;;;;;;;;4.50;1.00;;;;;6.11;68.65;99041.72;5100078;27;45488;-61
2021/11/28 03:36:19;;;;;;;;;1.00;0.50;;;;;6.11;68.74;99049.53;5098660;27;45724;-61
2021/11/28 03:38:45;;;;;;;;;2.00;1.00;;;;;6.09;68.77;99047.88;5098241;27;45746;-61
2021/11/28 03:41:10;;;;;;;;;1.00;1.00;;;;;6.07;68.93;99049.81;5099702;27;45398;-61
2021/11/28 03:43:36;;;;;;;;;2.00;1.00;;;;;6.07;69.08;99051.63;5100005;27;45207;-61
2021/11/28 03:46:02;;;;;;;;;1.00;1.00;;;;;6.05;68.76;99053.53;5098624;27;45319;-61
2021/11/28 03:48:27;;;;;;;;;1.00;1.00;;;;;6.06;68.99;99056.00;5099225;27;64148;-61
2021/11/28 03:50:53;;;;;;;;;1.25;1.00;;;;;6.07;68.67;99055.03;5098995;27;65168;-61
2021/11/28 03:53:18;;;;;;;;;2.00;1.00;;;;;6.06;68.90;99057.78;5098846;27;69424;-61
2021/11/28 03:55:43;;;;;;;;;2.00;0.00;;;;;6.06;69.03;99058.59;5099011;27;66891;-61
2021/11/28 03:58:09;;;;;;;;;3.00;0.00;;;;;6.07;68.83;99057.63;5098432;27;45359;-61
2021/11/28 04:00:35;;;;;;;;;1.00;1.00;;;;;6.06;68.74;99053.38;5099903;27;45307;-61
2021/11/28 04:03:01;;;;;;;;;2.00;0.50;;;;;6.05;68.92;99053.53;5098560;27;45337;-61
2021/11/28 04:05:26;;;;;;;;;0.00;0.00;;;;;6.03;69.40;99060.69;5099463;27;45401;-61
2021/11/28 04:07:51;;;;;;;;;4.00;1.00;;;;;6.01;69.32;99066.03;5098688;27;67620;-60
2021/11/28 04:10:17;;;;;;;;;1.75;0.00;;;;;6.01;69.87;99060.00;5099607;27;45814;-61
2021/11/28 04:12:42;;;;;;;;;2.50;1.25;;;;;6.00;69.51;99067.00;5081406;27;45578;-61
2021/11/28 04:15:08;;;;;;;;;4.25;1.00;;;;;6.01;69.21;99067.84;5099390;27;47463;-61
2021/11/28 04:17:33;;;;;;;;;1.00;1.00;;;;;5.99;69.48;99073.13;5099368;27;45181;-61
2021/11/28 04:19:59;;;;;;;;;1.00;1.00;;;;;6.01;69.44;99070.44;5098385;27;64258;-61
2021/11/28 04:22:24;;;;;;;;;1.00;1.00;;;;;6.01;69.45;99067.84;5098803;27;57990;-61
2021/11/28 04:24:50;;;;;;;;;1.00;1.00;;;;;5.99;69.53;99067.94;5098572;27;62356;-61
2021/11/28 04:27:16;;;;;;;;;3.00;2.00;;;;;5.98;69.79;99074.09;5099378;27;45373;-60
2021/11/28 04:29:41;;;;;;;;;1.00;1.00;;;;;5.98;69.82;99073.31;5081132;27;45390;-61
2021/11/28 04:32:07;;;;;;;;;1.00;1.00;;;;;5.97;69.88;99076.88;5099284;27;45377;-61
2021/11/28 04:34:32;;;;;;;;;1.75;1.00;;;;;5.98;69.60;99063.69;5098197;27;45608;-61
2021/11/28 04:36:57;;;;;;;;;1.50;1.50;;;;;5.97;69.51;99075.06;5098278;27;65357;-61
2021/11/28 04:39:23;;;;;;;;;1.00;1.00;;;;;5.96;69.88;99070.00;5099039;27;45371;-61
2021/11/28 04:41:48;;;;;;;;;1.00;1.00;;;;;5.96;69.78;99075.22;5098885;27;45368;-61
2021/11/28 04:44:14;;;;;;;;;2.25;0.50;;;;;5.95;69.50;99071.78;5097988;27;66476;-61
2021/11/28 04:46:41;;;;;;;;;4.50;2.00;;;;;5.91;69.58;99073.88;5098771;27;45264;-61
2021/11/28 04:49:06;;;;;;;;;2.25;1.00;;;;;5.90;69.58;99077.44;5098933;27;45670;-61
2021/11/28 04:51:31;;;;;;;;;0.75;0.75;;;;;5.91;69.59;99078.25;5080596;27;45482;-61
2021/11/28 04:53:57;;;;;;;;;1.00;0.00;;;;;5.89;70.00;99074.94;5098710;27;45347;-61
2021/11/28 04:56:24;;;;;;;;;3.00;2.00;;;;;5.88;69.99;99073.31;5098800;27;45304;-61
2021/11/28 04:58:49;;;;;;;;;4.00;1.00;;;;;5.89;70.33;99082.78;5098672;27;45286;-61
2021/11/28 05:01:15;;;;;;;;;1.75;1.00;;;;;5.88;70.42;99086.34;5098684;27;45462;-61
2021/11/28 05:03:40;;;;;;;;;1.00;1.00;;;;;5.86;70.65;99083.91;5098627;27;46252;-61
2021/11/28 05:06:05;;;;;;;;;1.50;1.00;;;;;5.85;70.72;99087.47;5097987;27;61731;-61
2021/11/28 05:08:31;;;;;;;;;3.00;2.00;;;;;5.84;71.01;99093.63;5097963;27;65352;-61
2021/11/28 05:10:56;;;;;;;;;1.00;1.00;;;;;5.83;71.16;99085.97;5098771;27;45449;-61
2021/11/28 05:13:21;;;;;;;;;2.00;1.00;;;;;5.85;71.17;99091.84;5098455;27;46179;-61
2021/11/28 05:15:47;;;;;;;;;3.75;1.00;;;;;5.83;71.33;99088.56;5097671;27;67216;-61
2021/11/28 05:18:12;;;;;;;;;2.00;1.00;;;;;5.83;71.58;99091.19;5098715;27;45981;-61
2021/11/28 05:20:38;;;;;;;;;7.00;7.00;;;;;5.83;71.46;99088.56;5097454;27;69237;-61
2021/11/28 05:23:03;;;;;;;;;2.00;1.75;;;;;5.84;71.42;99087.59;5097496;27;70752;-61
2021/11/28 05:25:28;;;;;;;;;1.00;1.00;;;;;5.83;71.58;99086.78;5098147;27;45520;-61
2021/11/28 05:27:54;;;;;;;;;1.75;1.50;;;;;5.83;71.43;99088.56;5097421;27;65090;-61
2021/11/28 05:30:19;;;;;;;;;3.00;1.00;;;;;5.82;71.35;99090.34;5098232;27;45652;-61
2021/11/28 05:32:44;;;;;;;;;2.50;2.00;;;;;5.82;71.28;99097.38;5096599;27;69329;-61
2021/11/28 05:35:10;;;;;;;;;2.00;1.00;;;;;5.82;71.41;99100.78;5097463;27;60191;-61
2021/11/28 05:37:35;;;;;;;;;1.00;1.00;;;;;5.82;71.40;99105.19;5079686;27;45615;-61
2021/11/28 05:40:01;;;;;;;;;3.25;1.50;;;;;5.82;71.62;99105.19;5097605;27;45571;-61
2021/11/28 05:42:26;;;;;;;;;2.50;1.50;;;;;5.81;71.37;99114.78;5096604;27;46395;-61
2021/11/28 05:44:52;;;;;;;;;1.25;1.00;;;;;5.82;71.55;99108.59;5097996;27;45334;-61
2021/11/28 05:47:17;;;;;;;;;1.75;1.75;;;;;5.85;71.62;99115.28;5097935;27;45219;-61
2021/11/28 05:49:42;;;;;;;;;0.75;0.75;;;;;5.85;71.69;99120.50;5097258;27;62668;-62
2021/11/28 05:52:08;;;;;;;;;2.75;1.00;;;;;5.86;71.91;99122.16;5097000;27;66094;-61
2021/11/28 05:54:33;;;;;;;;;3.00;1.50;;;;;5.87;71.74;99129.00;5097327;27;56397;-61
2021/11/28 05:56:59;;;;;;;;;1.25;1.25;;;;;5.86;71.89;99119.56;5097826;27;45500;-61
2021/11/28 05:59:26;;;;;;;;;2.50;0.00;;;;;5.86;71.85;99124.75;5097304;27;51671;-61
2021/11/28 06:01:52;;;;;;;;;1.50;1.00;;;;;5.83;71.97;99128.50;5097576;27;45413;-62
2021/11/28 06:04:18;;;;;;;;;1.00;1.00;;;;;5.82;71.84;99131.25;5096844;27;64414;-61
2021/11/28 06:06:44;;;;;;;;;1.75;1.75;;;;;5.81;71.75;99127.81;5079341;27;45302;-61
2021/11/28 06:09:09;;;;;;;;;2.75;1.00;;;;;5.77;71.72;99134.25;5097489;27;50411;-61
2021/11/28 06:11:34;;;;;;;;;1.00;1.00;;;;;5.72;71.80;99134.69;5096639;27;70388;-61
2021/11/28 06:14:00;;;;;;;;;1.00;1.00;;;;;5.69;72.04;99147.16;5079060;27;48596;-61
2021/11/28 06:16:25;;;;;;;;;2.75;0.00;;;;;5.62;71.91;99141.69;5097008;27;59335;-61
2021/11/28 06:18:51;;;;;;;;;4.00;1.00;;;;;5.59;72.10;99147.97;5097015;27;45555;-61
2021/11/28 06:21:16;;;;;;;;;2.00;0.00;;;;;5.61;72.43;99158.28;5096672;27;64457;-61
2021/11/28 06:23:41;;;;;;;;;2.00;0.25;;;;;5.60;72.11;99149.63;5097336;27;45425;-61
2021/11/28 06:26:07;;;;;;;;;1.00;1.00;;;;;5.61;72.50;99161.69;5096696;27;55736;-61
2021/11/28 06:28:33;;;;;;;;;1.00;1.00;;;;;5.61;72.53;99164.31;5097138;27;45397;-61
2021/11/28 06:30:58;;;;;;;;;1.00;1.00;;;;;5.62;72.50;99159.94;5096997;27;45408;-61
2021/11/28 06:33:23;;;;;;;;;0.50;0.50;;;;;5.63;72.58;99156.38;5097177;27;45472;-61
2021/11/28 06:35:49;;;;;;;;;1.00;0.50;;;;;5.64;72.55;99165.81;5096424;27;63746;-61
2021/11/28 06:38:14;;;;;;;;;0.00;0.00;;;;;5.64;72.46;99160.59;5096445;27;66274;-61
2021/11/28 06:40:39;;;;;;;;;1.50;0.25;;;;;5.65;72.74;99163.06;5095727;27;74528;-61
2021/11/28 06:43:05;;;;;;;;;1.00;1.00;;;;;5.64;72.36;99169.25;5095903;27;68163;-61
2021/11/28 06:45:30;;;;;;;;;2.00;1.00;;;;;5.66;72.48;99163.91;5096318;27;45777;-61
2021/11/28 06:47:56;;;;;;;;;0.75;0.75;;;;;5.68;72.53;99166.34;5096861;27;45358;-61
2021/11/28 06:50:21;;;;;;;;;2.00;0.00;;;;;5.65;72.65;99176.09;5096843;27;45382;-61
2021/11/28 06:52:47;;;;;;;;;3.00;1.00;;;;;5.67;72.43;99181.19;5096867;27;45275;-61
2021/11/28 06:55:12;;;;;;;;;0.75;0.75;;;;;5.67;72.43;99186.41;5096894;27;45497;-61
2021/11/28 06:57:38;;;;;;;;;2.50;1.00;;;;;5.67;72.55;99186.41;5078713;27;45459;-61
2021/11/28 07:00:04;;;;;;;;;1.00;1.00;;;;;5.68;72.47;99180.22;5095693;27;70468;-61
2021/11/28 07:02:30;;;;;;;;;0.00;0.00;;;;;5.67;72.43;99194.22;5096660;27;45299;-61
2021/11/28 07:04:58;;;;;;;;;2.00;2.00;;;;;5.67;72.44;99191.59;5078098;27;45353;-61
2021/11/28 07:07:23;;;;;;;;;0.75;0.00;;;;;5.67;72.42;99194.22;5096837;27;45162;-62
2021/11/28 07:09:48;;;;;;;;;1.00;1.00;;;;;5.68;72.46;99200.22;5096564;27;45355;-61
2021/11/28 07:12:14;;;;;;;;;2.00;1.00;;;;;5.67;72.38;99199.44;5095889;27;66727;-61
2021/11/28 07:14:39;;;;;;;;;1.00;1.00;;;;;5.67;72.35;99207.25;5095965;27;62349;-61
2021/11/28 07:17:05;;;;;;;;;1.00;1.00;;;;;5.66;72.42;99213.41;5096612;27;45311;-61
2021/11/28 07:19:30;;;;;;;;;1.00;0.75;;;;;5.67;72.24;99209.84;5095509;27;69893;-61
2021/11/28 07:21:57;;;;;;;;;2.50;1.00;;;;;5.68;72.23;99213.25;5096393;27;45456;-61
2021/11/28 07:24:22;;;;;;;;;2.00;1.00;;;;;5.68;72.37;99219.31;5096590;27;45394;-61
2021/11/28 07:26:48;;;;;;;;;2.00;1.00;;;;;5.70;72.09;99220.00;5096463;27;45632;-62
2021/11/28 07:29:13;;;;;;;;;1.00;1.00;;;;;5.70;72.35;99217.41;5096243;27;46413;-61
2021/11/28 07:31:38;;;;;;;;;1.00;1.00;;;;;5.70;71.75;99225.22;5095549;27;65404;-61
2021/11/28 07:34:04;;;;;;;;;0.75;0.75;;;;;5.68;71.92;99229.75;5077931;27;45795;-61
2021/11/28 07:36:29;;;;;;;;;1.00;1.00;;;;;5.68;71.45;99237.56;5096460;27;45672;-61
2021/11/28 07:38:55;;;;;;;;;0.25;0.00;;;;;5.66;71.65;99234.25;5095432;27;65432;-61
2021/11/28 07:41:20;;;;;;;;;0.00;0.00;;;;;5.65;71.83;99238.63;5095144;27;66183;-61
2021/11/28 07:43:46;;;;;;;;;0.25;0.00;;;;;5.66;71.64;99236.88;5095785;27;57046;-61
2021/11/28 07:46:11;;;;;;;;;2.00;1.00;;;;;5.67;71.56;99246.34;5095002;27;45278;-61
2021/11/28 07:48:36;;;;;;;;;2.25;0.00;;;;;5.68;71.18;99258.41;5096128;27;46075;-61
2021/11/28 07:51:02;;;;;;;;;3.25;1.75;;;;;5.69;71.15;99246.19;5096099;27;45304;-61
2021/11/28 07:53:28;;;;;;;;;2.00;1.75;;;;;5.66;70.89;99247.28;5078133;27;45328;-61
2021/11/28 07:55:54;;;;;;;;;1.00;1.00;;;;;5.66;70.93;99262.94;5096567;27;61845;-61
2021/11/28 07:58:19;;;;;;;;;1.75;0.00;;;;;5.65;71.11;99269.91;5098673;27;70254;-61
2021/11/28 08:00:45;;;;;;;;;0.50;0.50;;;;;5.65;71.12;99269.91;5081121;27;45250;-61
2021/11/28 08:03:10;;;;;;;;;1.00;1.00;;;;;5.67;71.14;99271.56;5099344;27;45221;-61
2021/11/28 08:05:35;;;;;;;;;1.00;1.00;;;;;5.68;70.72;99273.22;5098369;27;45285;-61
2021/11/28 08:08:01;;;;;;;;;1.00;1.00;;;;;5.69;70.68;99280.06;5099011;27;52109;-61
2021/11/28 08:10:26;;;;;;;;;2.00;2.00;;;;;5.69;70.88;99275.69;5099334;27;45387;-61
2021/11/28 08:12:52;;;;;;;;;0.50;0.50;;;;;5.71;70.81;99278.16;5080196;27;59417;-62
2021/11/28 08:15:18;;;;;;;;;1.00;1.00;;;;;5.70;70.66;99285.16;5099520;27;46391;-61
2021/11/28 08:17:47;;;;;;;;;1.75;1.75;;;;;5.71;70.87;99291.19;5099217;27;46175;-60
2021/11/28 08:20:12;;;;;;;;;1.00;1.00;;;;;5.71;70.74;99286.81;5099114;27;45395;-60
2021/11/28 08:22:38;;;;;;;;;3.00;1.75;;;;;5.72;70.77;99285.84;5099405;27;45219;-61
2021/11/28 08:25:04;;;;;;;;;3.00;3.00;;;;;5.69;70.75;99285.28;5099221;27;45580;-61
2021/11/28 08:27:30;;;;;;;;;3.00;2.00;;;;;5.65;70.60;99285.53;5098880;27;46649;-61
2021/11/28 08:29:57;;;;;;;;;4.00;1.75;;;;;5.67;70.67;99295.84;5099035;27;45319;-61
2021/11/28 08:32:23;;;;;;;;;2.00;0.50;;;;;5.67;70.59;99301.06;5099181;27;45347;-61
2021/11/28 08:34:48;;;;;;;;;2.50;1.75;;;;;5.68;70.60;99301.88;5079748;27;64423;-61
2021/11/28 08:37:14;;;;;;;;;2.00;1.00;;;;;5.70;70.77;99300.78;5097955;27;65029;-61
2021/11/28 08:39:39;;;;;;;;;2.25;2.00;;;;;5.72;70.82;99300.66;5097527;27;65801;-60
2021/11/28 08:42:07;;;;;;;;;2.00;1.00;;;;;5.75;70.29;99305.59;5098009;27;64919;-61
2021/11/28 08:44:33;;;;;;;;;7.00;1.75;;;;;5.74;70.13;99307.38;5098886;27;45332;-61
2021/11/28 08:46:58;;;;;;;;;1.75;1.75;;;;;5.75;69.85;99302.97;5098663;27;45406;-61
2021/11/28 08:49:24;;;;;;;;;1.25;1.00;;;;;5.72;70.01;99304.09;5098647;27;45310;-61
2021/11/28 08:51:49;;;;;;;;;1.00;1.00;;;;;5.72;69.81;99311.91;5098452;27;45516;-61
2021/11/28 08:54:15;;;;;;;;;2.00;2.00;;;;;5.73;70.20;99310.13;5097605;27;60648;-61
2021/11/28 08:56:41;;;;;;;;;4.75;2.50;;;;;5.73;69.97;99312.72;5096908;27;45395;-61
2021/11/28 08:59:07;;;;;;;;;2.00;2.00;;;;;5.73;69.78;99313.56;5079899;27;45436;-61
2021/11/28 09:01:32;;;;;;;;;2.00;1.50;;;;;5.77;69.84;99316.72;5097414;27;63899;-61
2021/11/28 09:03:58;;;;;;;;;2.50;2.00;;;;;5.76;69.77;99313.28;5097656;27;63303;-61
2021/11/28 09:06:23;;;;;;;;;3.25;2.00;;;;;5.77;69.97;99320.16;5079276;27;45425;-61
2021/11/28 09:08:49;;;;;;;;;3.50;2.25;;;;;5.79;69.89;99323.44;5097915;27;45335;-61
2021/11/28 09:11:15;;;;;;;;;3.00;2.00;;;;;5.79;69.68;99323.44;5097877;27;54843;-61
2021/11/28 09:13:40;;;;;;;;;3.00;2.00;;;;;5.80;69.98;99326.88;5098470;27;45299;-61
2021/11/28 09:16:10;;;;;;;;;1.00;1.00;;;;;5.79;70.16;99326.06;5079624;27;45419;-61
2021/11/28 09:18:40;;;;;;;;;3.75;2.00;;;;;5.81;70.37;99338.13;5080105;27;45257;-61
2021/11/28 09:21:05;;;;;;;;;1.50;1.00;;;;;5.80;70.15;99339.91;5098172;27;45405;-62
2021/11/28 09:26:14;;;;;;;;;7.25;5.25;;;;;5.79;70.53;99341.69;5097860;27;45467;-61
2021/11/28 09:28:40;;;;;;;;;2.25;2.00;;;;;5.80;70.53;99337.28;5095832;27;67109;-61
2021/11/28 09:31:09;;;;;;;;;3.25;1.00;;;;;5.80;70.24;99345.09;5095746;27;65281;-61
2021/11/28 09:33:35;;;;;;;;;6.25;2.00;;;;;5.78;70.21;99347.88;5098067;27;45196;-61
2021/11/28 09:36:00;;;;;;;;;4.50;1.50;;;;;5.77;70.02;99355.81;5096789;27;45324;-61
2021/11/28 09:38:25;;;;;;;;;6.00;4.00;;;;;5.75;69.83;99342.91;5096818;27;65366;-61
2021/11/28 09:40:51;;;;;;;;;2.75;2.25;;;;;5.76;69.93;99357.59;5096319;27;65947;-61
2021/11/28 09:43:16;;;;;;;;;2.00;1.00;;;;;5.76;69.93;99355.00;5096539;27;45517;-61
2021/11/28 09:45:44;;;;;;;;;4.25;3.50;;;;;5.76;69.64;99349.78;5095361;27;72047;-61
2021/11/28 09:48:09;;;;;;;;;3.25;1.00;;;;;5.77;69.73;99361.00;5097680;27;45839;-61
2021/11/28 09:50:34;;;;;;;;;4.25;4.00;;;;;5.75;69.97;99363.78;5079018;27;61234;-61
2021/11/28 09:53:00;;;;;;;;;4.00;3.00;;;;;5.76;69.97;99362.81;5095664;27;61401;-61
2021/11/28 09:55:25;;;;;;;;;5.25;3.00;;;;;5.76;70.22;99372.41;5078077;27;67437;-61
2021/11/28 09:57:51;;;;;;;;;3.50;2.00;;;;;5.77;69.92;99368.84;5097613;27;45398;-61
2021/11/28 10:00:16;;;;;;;;;8.75;2.25;;;;;5.74;70.10;99374.31;5078174;27;58590;-60
2021/11/28 10:02:42;;;;;;;;;3.75;2.00;;;;;5.70;69.74;99363.34;5097442;27;45401;-60
2021/11/28 10:05:09;;;;;;;;;2.50;2.00;;;;;5.70;69.78;99373.78;5097495;27;45488;-60
2021/11/28 10:07:45;;;;;;;;;2.00;2.00;;;;;5.70;69.58;99376.38;5079266;27;45943;-60
2021/11/28 10:10:11;;;;;;;;;2.25;1.25;;;;;5.71;69.26;99370.19;5078705;27;45249;-60
2021/11/28 10:12:40;;;;;;;;;3.25;2.00;;;;;5.72;69.08;99377.06;5097418;27;45228;-60
2021/11/28 10:15:08;;;;;;;;;3.00;1.50;;;;;5.72;68.88;99369.25;5097147;27;45575;-60
2021/11/28 10:17:34;;;;;;;;;2.25;2.00;;;;;5.74;68.53;99384.75;5078894;27;45545;-60
2021/11/28 10:20:02;;;;;;;;;2.25;0.00;;;;;5.72;68.12;99371.00;5078620;27;45429;-60
2021/11/28 10:22:28;;;;;;;;;3.00;2.50;;;;;5.72;68.25;99379.69;5097115;27;45293;-60
2021/11/28 10:25:00;;;;;;;;;6.50;2.75;;;;;5.70;68.08;99384.19;5097113;27;46020;-60
2021/11/28 10:27:39;;;;;;;;;1.00;1.00;;;;;5.72;68.45;99384.03;5095933;27;45247;-60
2021/11/28 10:30:06;;;;;;;;;3.75;2.00;;;;;5.74;68.25;99382.97;5097120;27;45398;-60
2021/11/28 10:32:32;;;;;;;;;6.75;3.50;;;;;5.78;68.34;99379.16;5096690;27;45406;-60
2021/11/28 10:34:57;;;;;;;;;3.50;3.00;;;;;5.78;68.53;99368.72;5095768;27;74987;-61
2021/11/28 10:37:23;;;;;;;;;4.00;2.50;;;;;5.83;68.51;99380.53;5078253;27;45241;-60
2021/11/28 10:39:57;;;;;;;;;1.50;1.00;;;;;5.85;68.73;99382.03;5096683;27;45256;-60
2021/11/28 10:42:23;;;;;;;;;4.75;3.00;;;;;5.88;68.79;99386.97;5096665;27;45236;-60
2021/11/28 10:44:59;;;;;;;;;3.33;2.33;;;;;5.90;69.12;99384.22;5096285;27;46219;-61
2021/11/28 10:47:37;;;;;;;;;1.75;1.75;;;;;5.89;68.53;99388.63;5096693;27;45862;-61
2021/11/28 10:50:26;;;;;;;;;2.00;1.00;;;;;5.79;67.93;99383.41;5096177;27;45284;-60
2021/11/28 10:53:15;;;;;;;;;2.25;1.50;;;;;5.72;68.31;99392.69;5070264;27;45369;-60
2021/11/28 10:55:42;;;;;;;;;1.00;1.00;;;;;5.64;68.48;99401.16;5088450;27;46602;-60
2021/11/28 10:58:17;;;;;;;;;1.75;1.00;;;;;5.56;68.13;99392.38;5096603;27;46037;-60
2021/11/28 11:00:45;;;;;;;;;3.00;2.25;;;;;5.45;68.26;99391.50;5078758;27;45276;-62
2021/11/28 11:03:20;;;;;;;;;2.00;1.00;;;;;5.40;68.36;99393.69;5096760;27;45313;-60
2021/11/28 11:05:47;;;;;;;;;4.00;3.00;;;;;5.32;68.96;99383.91;5096242;27;46345;-60
2021/11/28 11:08:15;;;;;;;;;2.25;2.25;;;;;5.26;69.18;99386.22;5096603;27;45907;-59
2021/11/28 11:10:41;;;;;;;;;2.00;2.00;;;;;5.24;69.56;99385.53;5096518;27;45371;-60
2021/11/28 11:13:11;;;;;;;;;6.00;4.75;;;;;5.23;69.33;99386.50;5096639;27;45537;-59
2021/11/28 11:15:43;;;;;;;;;1.75;1.75;;;;;5.23;69.50;99389.09;5078083;27;45649;-60
2021/11/28 11:18:10;;;;;;;;;3.00;2.75;;;;;5.23;69.99;99389.09;5077615;27;45883;-62
2021/11/28 11:20:40;;;;;;;;;3.75;2.00;;;;;5.24;70.17;99395.94;5096431;27;45311;-60
2021/11/28 11:23:38;;;;;;;;;5.00;3.00;;;;;5.25;70.14;99384.59;5096516;27;45247;-61
2021/11/28 11:26:20;;;;;;;;;9.75;4.00;;;;;5.25;69.97;99387.19;5090815;27;45641;-62
2021/11/28 11:29:10;;;;;;;;;3.75;2.00;;;;;5.26;69.86;99396.66;5096158;27;46006;-60
2021/11/28 11:31:37;;;;;;;;;4.75;3.00;;;;;5.28;70.08;99395.56;5097982;27;45413;-61
2021/11/28 11:34:02;;;;;;;;;3.50;3.50;;;;;5.26;69.99;99391.44;5081574;27;45432;-61
2021/11/28 11:37:12;;;;;;;;;5.00;3.00;;;;;5.28;70.11;99390.34;5080862;27;64926;-62
2021/11/28 11:39:39;;;;;;;;;7.00;6.00;;;;;5.27;70.40;99395.69;5097776;27;45858;-62
2021/11/28 11:42:04;;;;;;;;;2.75;2.75;;;;;5.29;70.57;99399.81;5099773;27;45322;-62
2021/11/28 11:44:30;;;;;;;;;7.00;4.00;;;;;5.31;70.24;99395.28;5099534;27;45267;-62
2021/11/28 11:46:56;;;;;;;;;4.00;4.00;;;;;5.29;70.22;99402.41;5099351;27;45998;-62